sensor_id;sensor_type;location;lat;lon;timestamp;P1;durP1;ratioP1;P2;durP2;ratioP2
35632;SDS011;21754;48.216;-1.628;2023-02-11T00:00:09;15.75;;;11.23;;
35632;SDS011;21754;48.216;-1.628;2023-02-11T00:02:35;22.88;;;12.10;;
35632;SDS011;21754;48.216;-1.628;2023-02-11T00:05:01;24.02;;;12.63;;
35632;SDS011;21754;48.216;-1.628;2023-02-11T00:07:27;24.27;;;11.93;;
35632;SDS011;21754;48.216;-1.628;2023-02-11T00:09:54;26.25;;;12.38;;
35632;SDS011;21754;48.216;-1.628;2023-02-11T00:12:20;23.65;;;11.48;;
35632;SDS011;21754;48.216;-1.628;2023-02-11T00:14:46;17.55;;;9.95;;
35632;SDS011;21754;48.216;-1.628;2023-02-11T00:17:12;20.90;;;11.45;;
35632;SDS011;21754;48.216;-1.628;2023-02-11T00:19:37;19.98;;;12.45;;
35632;SDS011;21754;48.216;-1.628;2023-02-11T00:22:04;22.23;;;12.77;;
35632;SDS011;21754;48.216;-1.628;2023-02-11T00:24:29;16.85;;;11.32;;
35632;SDS011;21754;48.216;-1.628;2023-02-11T00:26:55;26.42;;;14.05;;
35632;SDS011;21754;48.216;-1.628;2023-02-11T00:29:21;22.75;;;12.15;;
35632;SDS011;21754;48.216;-1.628;2023-02-11T00:31:47;21.30;;;12.27;;
35632;SDS011;21754;48.216;-1.628;2023-02-11T00:34:12;19.90;;;11.85;;
35632;SDS011;21754;48.216;-1.628;2023-02-11T00:36:38;22.50;;;11.65;;
35632;SDS011;21754;48.216;-1.628;2023-02-11T00:39:04;25.58;;;12.45;;
35632;SDS011;21754;48.216;-1.628;2023-02-11T00:41:31;21.80;;;10.30;;
35632;SDS011;21754;48.216;-1.628;2023-02-11T00:43:57;17.02;;;11.10;;
35632;SDS011;21754;48.216;-1.628;2023-02-11T00:46:23;23.65;;;11.32;;
35632;SDS011;21754;48.216;-1.628;2023-02-11T00:48:49;22.20;;;12.63;;
35632;SDS011;21754;48.216;-1.628;2023-02-11T00:51:17;19.40;;;12.85;;
35632;SDS011;21754;48.216;-1.628;2023-02-11T00:53:43;23.48;;;13.85;;
35632;SDS011;21754;48.216;-1.628;2023-02-11T00:56:09;25.88;;;14.15;;
35632;SDS011;21754;48.216;-1.628;2023-02-11T00:58:35;28.35;;;12.25;;
35632;SDS011;21754;48.216;-1.628;2023-02-11T01:01:01;21.73;;;13.18;;
35632;SDS011;21754;48.216;-1.628;2023-02-11T01:03:27;22.73;;;14.40;;
35632;SDS011;21754;48.216;-1.628;2023-02-11T01:05:53;25.55;;;14.48;;
35632;SDS011;21754;48.216;-1.628;2023-02-11T01:08:19;16.77;;;11.50;;
35632;SDS011;21754;48.216;-1.628;2023-02-11T01:10:52;21.27;;;11.95;;
35632;SDS011;21754;48.216;-1.628;2023-02-11T01:13:18;28.27;;;13.18;;
35632;SDS011;21754;48.216;-1.628;2023-02-11T01:15:44;24.15;;;12.40;;
35632;SDS011;21754;48.216;-1.628;2023-02-11T01:18:10;15.88;;;10.68;;
35632;SDS011;21754;48.216;-1.628;2023-02-11T01:20:36;15.32;;;10.52;;
35632;SDS011;21754;48.216;-1.628;2023-02-11T01:23:02;21.33;;;12.85;;
35632;SDS011;21754;48.216;-1.628;2023-02-11T01:25:28;22.17;;;13.43;;
35632;SDS011;21754;48.216;-1.628;2023-02-11T01:27:54;23.73;;;11.95;;
35632;SDS011;21754;48.216;-1.628;2023-02-11T01:30:20;24.42;;;11.45;;
35632;SDS011;21754;48.216;-1.628;2023-02-11T01:32:46;17.13;;;11.23;;
35632;SDS011;21754;48.216;-1.628;2023-02-11T01:35:12;24.60;;;12.43;;
35632;SDS011;21754;48.216;-1.628;2023-02-11T01:37:38;21.05;;;11.60;;
35632;SDS011;21754;48.216;-1.628;2023-02-11T01:40:06;20.13;;;10.48;;
35632;SDS011;21754;48.216;-1.628;2023-02-11T01:42:32;18.33;;;11.50;;
35632;SDS011;21754;48.216;-1.628;2023-02-11T01:44:59;17.15;;;11.00;;
35632;SDS011;21754;48.216;-1.628;2023-02-11T01:47:26;16.20;;;9.77;;
35632;SDS011;21754;48.216;-1.628;2023-02-11T01:49:56;16.65;;;10.23;;
35632;SDS011;21754;48.216;-1.628;2023-02-11T01:52:24;17.75;;;9.95;;
35632;SDS011;21754;48.216;-1.628;2023-02-11T01:55:09;17.77;;;10.07;;
35632;SDS011;21754;48.216;-1.628;2023-02-11T01:57:56;17.17;;;9.48;;
35632;SDS011;21754;48.216;-1.628;2023-02-11T02:00:33;23.92;;;11.27;;
35632;SDS011;21754;48.216;-1.628;2023-02-11T02:03:05;17.35;;;10.55;;
35632;SDS011;21754;48.216;-1.628;2023-02-11T02:05:41;12.45;;;8.90;;
35632;SDS011;21754;48.216;-1.628;2023-02-11T02:08:25;15.02;;;9.60;;
35632;SDS011;21754;48.216;-1.628;2023-02-11T02:10:54;10.73;;;7.78;;
35632;SDS011;21754;48.216;-1.628;2023-02-11T02:13:23;14.02;;;9.25;;
35632;SDS011;21754;48.216;-1.628;2023-02-11T02:15:50;14.48;;;9.77;;
35632;SDS011;21754;48.216;-1.628;2023-02-11T02:18:24;13.90;;;8.90;;
35632;SDS011;21754;48.216;-1.628;2023-02-11T02:20:56;16.75;;;9.02;;
35632;SDS011;21754;48.216;-1.628;2023-02-11T02:23:50;13.90;;;9.30;;
35632;SDS011;21754;48.216;-1.628;2023-02-11T02:29:07;16.98;;;8.85;;
35632;SDS011;21754;48.216;-1.628;2023-02-11T02:34:36;15.68;;;8.80;;
35632;SDS011;21754;48.216;-1.628;2023-02-11T02:37:20;14.43;;;9.85;;
35632;SDS011;21754;48.216;-1.628;2023-02-11T02:39:53;20.02;;;8.70;;
35632;SDS011;21754;48.216;-1.628;2023-02-11T02:42:21;18.60;;;10.07;;
35632;SDS011;21754;48.216;-1.628;2023-02-11T02:44:49;22.38;;;9.65;;
35632;SDS011;21754;48.216;-1.628;2023-02-11T02:47:16;21.90;;;10.45;;
35632;SDS011;21754;48.216;-1.628;2023-02-11T02:49:42;13.10;;;9.30;;
35632;SDS011;21754;48.216;-1.628;2023-02-11T02:55:16;13.77;;;8.82;;
35632;SDS011;21754;48.216;-1.628;2023-02-11T03:05:33;19.35;;;10.80;;
35632;SDS011;21754;48.216;-1.628;2023-02-11T03:08:08;17.83;;;10.20;;
35632;SDS011;21754;48.216;-1.628;2023-02-11T03:10:40;15.90;;;9.40;;
35632;SDS011;21754;48.216;-1.628;2023-02-11T03:13:12;36.53;;;15.57;;
35632;SDS011;21754;48.216;-1.628;2023-02-11T03:15:43;29.33;;;13.23;;
35632;SDS011;21754;48.216;-1.628;2023-02-11T03:18:12;25.63;;;12.93;;
35632;SDS011;21754;48.216;-1.628;2023-02-11T03:20:42;34.17;;;13.80;;
35632;SDS011;21754;48.216;-1.628;2023-02-11T03:23:12;34.92;;;12.75;;
35632;SDS011;21754;48.216;-1.628;2023-02-11T03:26:03;46.55;;;15.02;;
35632;SDS011;21754;48.216;-1.628;2023-02-11T03:29:04;29.83;;;15.18;;
35632;SDS011;21754;48.216;-1.628;2023-02-11T03:32:39;40.63;;;16.58;;
35632;SDS011;21754;48.216;-1.628;2023-02-11T03:40:03;29.55;;;13.90;;
35632;SDS011;21754;48.216;-1.628;2023-02-11T03:42:53;29.70;;;14.48;;
35632;SDS011;21754;48.216;-1.628;2023-02-11T03:45:25;33.35;;;13.75;;
35632;SDS011;21754;48.216;-1.628;2023-02-11T03:47:58;24.10;;;14.63;;
35632;SDS011;21754;48.216;-1.628;2023-02-11T03:50:26;19.65;;;11.25;;
35632;SDS011;21754;48.216;-1.628;2023-02-11T03:52:54;38.42;;;13.60;;
35632;SDS011;21754;48.216;-1.628;2023-02-11T03:55:22;22.48;;;12.05;;
35632;SDS011;21754;48.216;-1.628;2023-02-11T03:57:50;20.37;;;11.80;;
35632;SDS011;21754;48.216;-1.628;2023-02-11T04:00:16;35.55;;;11.93;;
35632;SDS011;21754;48.216;-1.628;2023-02-11T04:02:42;14.45;;;11.20;;
35632;SDS011;21754;48.216;-1.628;2023-02-11T04:05:09;20.25;;;10.82;;
35632;SDS011;21754;48.216;-1.628;2023-02-11T04:07:36;20.15;;;10.30;;
35632;SDS011;21754;48.216;-1.628;2023-02-11T04:10:02;24.27;;;11.07;;
35632;SDS011;21754;48.216;-1.628;2023-02-11T04:12:28;24.25;;;10.75;;
35632;SDS011;21754;48.216;-1.628;2023-02-11T04:14:54;23.85;;;10.55;;
35632;SDS011;21754;48.216;-1.628;2023-02-11T04:17:20;16.30;;;11.57;;
35632;SDS011;21754;48.216;-1.628;2023-02-11T04:19:45;17.67;;;11.40;;
35632;SDS011;21754;48.216;-1.628;2023-02-11T04:22:11;26.60;;;12.02;;
35632;SDS011;21754;48.216;-1.628;2023-02-11T04:24:37;18.40;;;10.68;;
35632;SDS011;21754;48.216;-1.628;2023-02-11T04:27:03;15.55;;;10.60;;
35632;SDS011;21754;48.216;-1.628;2023-02-11T04:29:28;11.40;;;9.38;;
35632;SDS011;21754;48.216;-1.628;2023-02-11T04:31:54;18.25;;;10.30;;
35632;SDS011;21754;48.216;-1.628;2023-02-11T04:34:20;11.40;;;10.05;;
35632;SDS011;21754;48.216;-1.628;2023-02-11T04:36:45;16.25;;;9.75;;
35632;SDS011;21754;48.216;-1.628;2023-02-11T04:39:12;15.35;;;11.13;;
35632;SDS011;21754;48.216;-1.628;2023-02-11T04:41:38;21.95;;;11.40;;
35632;SDS011;21754;48.216;-1.628;2023-02-11T04:44:04;15.85;;;9.85;;
35632;SDS011;21754;48.216;-1.628;2023-02-11T04:46:29;12.98;;;9.43;;
35632;SDS011;21754;48.216;-1.628;2023-02-11T04:48:55;14.80;;;9.50;;
35632;SDS011;21754;48.216;-1.628;2023-02-11T04:51:21;14.70;;;10.73;;
35632;SDS011;21754;48.216;-1.628;2023-02-11T04:53:47;22.63;;;10.82;;
35632;SDS011;21754;48.216;-1.628;2023-02-11T04:56:13;16.10;;;11.95;;
35632;SDS011;21754;48.216;-1.628;2023-02-11T04:58:39;20.13;;;9.88;;
35632;SDS011;21754;48.216;-1.628;2023-02-11T05:01:06;15.45;;;10.27;;
35632;SDS011;21754;48.216;-1.628;2023-02-11T05:03:36;17.83;;;8.80;;
35632;SDS011;21754;48.216;-1.628;2023-02-11T05:06:02;15.65;;;10.18;;
35632;SDS011;21754;48.216;-1.628;2023-02-11T05:08:29;20.02;;;9.70;;
35632;SDS011;21754;48.216;-1.628;2023-02-11T05:10:55;16.42;;;9.80;;
35632;SDS011;21754;48.216;-1.628;2023-02-11T05:13:20;11.02;;;8.40;;
35632;SDS011;21754;48.216;-1.628;2023-02-11T05:15:46;26.35;;;9.70;;
35632;SDS011;21754;48.216;-1.628;2023-02-11T05:18:12;11.45;;;8.65;;
35632;SDS011;21754;48.216;-1.628;2023-02-11T05:20:41;21.10;;;10.02;;
35632;SDS011;21754;48.216;-1.628;2023-02-11T05:23:07;14.68;;;9.38;;
35632;SDS011;21754;48.216;-1.628;2023-02-11T05:25:33;15.52;;;8.50;;
35632;SDS011;21754;48.216;-1.628;2023-02-11T05:27:58;17.95;;;9.82;;
35632;SDS011;21754;48.216;-1.628;2023-02-11T05:30:24;18.75;;;11.25;;
35632;SDS011;21754;48.216;-1.628;2023-02-11T05:32:50;14.07;;;10.40;;
35632;SDS011;21754;48.216;-1.628;2023-02-11T05:35:16;16.17;;;10.32;;
35632;SDS011;21754;48.216;-1.628;2023-02-11T05:37:42;10.35;;;8.45;;
35632;SDS011;21754;48.216;-1.628;2023-02-11T05:40:08;15.07;;;9.52;;
35632;SDS011;21754;48.216;-1.628;2023-02-11T05:42:34;19.80;;;11.40;;
35632;SDS011;21754;48.216;-1.628;2023-02-11T05:45:00;13.52;;;10.15;;
35632;SDS011;21754;48.216;-1.628;2023-02-11T05:47:25;19.50;;;11.40;;
35632;SDS011;21754;48.216;-1.628;2023-02-11T05:49:51;13.55;;;10.75;;
35632;SDS011;21754;48.216;-1.628;2023-02-11T05:52:18;14.75;;;10.38;;
35632;SDS011;21754;48.216;-1.628;2023-02-11T05:54:44;29.00;;;11.02;;
35632;SDS011;21754;48.216;-1.628;2023-02-11T05:57:10;23.40;;;11.40;;
35632;SDS011;21754;48.216;-1.628;2023-02-11T05:59:36;15.63;;;9.57;;
35632;SDS011;21754;48.216;-1.628;2023-02-11T06:02:02;23.80;;;11.60;;
35632;SDS011;21754;48.216;-1.628;2023-02-11T06:04:28;20.00;;;10.82;;
35632;SDS011;21754;48.216;-1.628;2023-02-11T06:06:53;21.38;;;10.32;;
35632;SDS011;21754;48.216;-1.628;2023-02-11T06:09:19;18.63;;;9.70;;
35632;SDS011;21754;48.216;-1.628;2023-02-11T06:11:44;19.65;;;10.75;;
35632;SDS011;21754;48.216;-1.628;2023-02-11T06:14:10;14.60;;;9.43;;
35632;SDS011;21754;48.216;-1.628;2023-02-11T06:16:36;19.05;;;8.95;;
35632;SDS011;21754;48.216;-1.628;2023-02-11T06:19:02;12.55;;;9.45;;
35632;SDS011;21754;48.216;-1.628;2023-02-11T06:21:27;26.23;;;10.45;;
35632;SDS011;21754;48.216;-1.628;2023-02-11T06:23:53;19.52;;;8.18;;
35632;SDS011;21754;48.216;-1.628;2023-02-11T06:26:21;15.48;;;7.78;;
35632;SDS011;21754;48.216;-1.628;2023-02-11T06:28:47;13.52;;;9.82;;
35632;SDS011;21754;48.216;-1.628;2023-02-11T06:31:13;15.32;;;9.23;;
35632;SDS011;21754;48.216;-1.628;2023-02-11T06:33:39;12.13;;;8.02;;
35632;SDS011;21754;48.216;-1.628;2023-02-11T06:36:18;13.48;;;9.23;;
35632;SDS011;21754;48.216;-1.628;2023-02-11T06:38:45;12.13;;;8.82;;
35632;SDS011;21754;48.216;-1.628;2023-02-11T06:41:12;11.15;;;9.02;;
35632;SDS011;21754;48.216;-1.628;2023-02-11T06:43:38;12.30;;;7.77;;
35632;SDS011;21754;48.216;-1.628;2023-02-11T06:46:04;18.38;;;8.25;;
35632;SDS011;21754;48.216;-1.628;2023-02-11T06:48:31;12.15;;;9.13;;
35632;SDS011;21754;48.216;-1.628;2023-02-11T06:51:00;16.00;;;9.38;;
35632;SDS011;21754;48.216;-1.628;2023-02-11T06:53:27;14.30;;;9.10;;
35632;SDS011;21754;48.216;-1.628;2023-02-11T06:55:53;9.50;;;8.45;;
35632;SDS011;21754;48.216;-1.628;2023-02-11T06:58:19;10.60;;;7.43;;
35632;SDS011;21754;48.216;-1.628;2023-02-11T07:00:45;7.95;;;7.07;;
35632;SDS011;21754;48.216;-1.628;2023-02-11T07:03:11;9.27;;;7.72;;
35632;SDS011;21754;48.216;-1.628;2023-02-11T07:05:37;10.55;;;7.90;;
35632;SDS011;21754;48.216;-1.628;2023-02-11T07:08:03;9.27;;;8.38;;
35632;SDS011;21754;48.216;-1.628;2023-02-11T07:10:29;16.27;;;8.43;;
35632;SDS011;21754;48.216;-1.628;2023-02-11T07:12:55;8.00;;;7.30;;
35632;SDS011;21754;48.216;-1.628;2023-02-11T07:15:21;8.40;;;7.60;;
35632;SDS011;21754;48.216;-1.628;2023-02-11T07:17:47;11.63;;;8.65;;
35632;SDS011;21754;48.216;-1.628;2023-02-11T07:20:13;14.27;;;9.20;;
35632;SDS011;21754;48.216;-1.628;2023-02-11T07:22:39;8.50;;;7.05;;
35632;SDS011;21754;48.216;-1.628;2023-02-11T07:25:05;8.32;;;7.50;;
35632;SDS011;21754;48.216;-1.628;2023-02-11T07:27:31;8.50;;;7.53;;
35632;SDS011;21754;48.216;-1.628;2023-02-11T07:29:57;15.60;;;8.10;;
35632;SDS011;21754;48.216;-1.628;2023-02-11T07:32:23;7.80;;;7.07;;
35632;SDS011;21754;48.216;-1.628;2023-02-11T07:34:49;5.88;;;5.40;;
35632;SDS011;21754;48.216;-1.628;2023-02-11T07:37:16;15.40;;;8.82;;
35632;SDS011;21754;48.216;-1.628;2023-02-11T07:39:42;8.10;;;6.97;;
35632;SDS011;21754;48.216;-1.628;2023-02-11T07:42:08;11.32;;;8.45;;
35632;SDS011;21754;48.216;-1.628;2023-02-11T07:44:34;11.50;;;8.95;;
35632;SDS011;21754;48.216;-1.628;2023-02-11T07:47:00;8.80;;;7.97;;
35632;SDS011;21754;48.216;-1.628;2023-02-11T07:49:27;12.82;;;8.35;;
35632;SDS011;21754;48.216;-1.628;2023-02-11T07:51:53;11.45;;;9.25;;
35632;SDS011;21754;48.216;-1.628;2023-02-11T07:54:19;11.43;;;9.10;;
35632;SDS011;21754;48.216;-1.628;2023-02-11T07:56:46;11.38;;;7.38;;
35632;SDS011;21754;48.216;-1.628;2023-02-11T07:59:12;10.00;;;8.93;;
35632;SDS011;21754;48.216;-1.628;2023-02-11T08:01:38;16.67;;;8.88;;
35632;SDS011;21754;48.216;-1.628;2023-02-11T08:04:04;9.65;;;8.40;;
35632;SDS011;21754;48.216;-1.628;2023-02-11T08:06:32;11.05;;;9.10;;
35632;SDS011;21754;48.216;-1.628;2023-02-11T08:09:02;10.88;;;7.93;;
35632;SDS011;21754;48.216;-1.628;2023-02-11T08:11:28;11.98;;;9.25;;
35632;SDS011;21754;48.216;-1.628;2023-02-11T08:13:55;8.93;;;8.02;;
35632;SDS011;21754;48.216;-1.628;2023-02-11T08:16:22;12.40;;;9.82;;
35632;SDS011;21754;48.216;-1.628;2023-02-11T08:18:49;13.45;;;9.82;;
35632;SDS011;21754;48.216;-1.628;2023-02-11T08:21:16;10.80;;;9.38;;
35632;SDS011;21754;48.216;-1.628;2023-02-11T08:23:42;10.32;;;8.05;;
35632;SDS011;21754;48.216;-1.628;2023-02-11T08:26:10;9.82;;;8.63;;
35632;SDS011;21754;48.216;-1.628;2023-02-11T08:28:37;10.25;;;8.23;;
35632;SDS011;21754;48.216;-1.628;2023-02-11T08:31:04;12.27;;;8.48;;
35632;SDS011;21754;48.216;-1.628;2023-02-11T08:33:31;10.98;;;9.60;;
35632;SDS011;21754;48.216;-1.628;2023-02-11T08:35:57;11.80;;;8.32;;
35632;SDS011;21754;48.216;-1.628;2023-02-11T08:38:23;22.92;;;9.02;;
35632;SDS011;21754;48.216;-1.628;2023-02-11T08:40:49;13.25;;;9.77;;
35632;SDS011;21754;48.216;-1.628;2023-02-11T08:43:15;9.93;;;8.93;;
35632;SDS011;21754;48.216;-1.628;2023-02-11T08:45:41;11.50;;;9.45;;
35632;SDS011;21754;48.216;-1.628;2023-02-11T08:48:07;23.30;;;9.52;;
35632;SDS011;21754;48.216;-1.628;2023-02-11T08:50:33;12.52;;;8.90;;
35632;SDS011;21754;48.216;-1.628;2023-02-11T08:53:02;30.52;;;8.30;;
35632;SDS011;21754;48.216;-1.628;2023-02-11T08:55:28;9.68;;;8.25;;
35632;SDS011;21754;48.216;-1.628;2023-02-11T08:57:54;16.27;;;8.65;;
35632;SDS011;21754;48.216;-1.628;2023-02-11T09:00:21;9.57;;;7.57;;
35632;SDS011;21754;48.216;-1.628;2023-02-11T09:02:47;11.88;;;7.32;;
35632;SDS011;21754;48.216;-1.628;2023-02-11T09:05:13;11.05;;;7.68;;
35632;SDS011;21754;48.216;-1.628;2023-02-11T09:07:39;16.10;;;8.35;;
35632;SDS011;21754;48.216;-1.628;2023-02-11T09:10:05;30.42;;;9.27;;
35632;SDS011;21754;48.216;-1.628;2023-02-11T09:12:31;22.98;;;8.25;;
35632;SDS011;21754;48.216;-1.628;2023-02-11T09:14:57;33.78;;;9.60;;
35632;SDS011;21754;48.216;-1.628;2023-02-11T09:17:23;12.93;;;8.35;;
35632;SDS011;21754;48.216;-1.628;2023-02-11T09:19:49;21.17;;;9.23;;
35632;SDS011;21754;48.216;-1.628;2023-02-11T09:22:15;24.20;;;8.95;;
35632;SDS011;21754;48.216;-1.628;2023-02-11T09:24:41;44.38;;;10.20;;
35632;SDS011;21754;48.216;-1.628;2023-02-11T09:27:07;19.10;;;9.02;;
35632;SDS011;21754;48.216;-1.628;2023-02-11T09:29:33;25.33;;;9.20;;
35632;SDS011;21754;48.216;-1.628;2023-02-11T09:32:00;17.23;;;8.02;;
35632;SDS011;21754;48.216;-1.628;2023-02-11T09:34:26;25.30;;;8.63;;
35632;SDS011;21754;48.216;-1.628;2023-02-11T09:36:52;29.95;;;10.30;;
35632;SDS011;21754;48.216;-1.628;2023-02-11T09:39:18;17.17;;;9.07;;
35632;SDS011;21754;48.216;-1.628;2023-02-11T09:41:57;22.67;;;10.63;;
35632;SDS011;21754;48.216;-1.628;2023-02-11T09:44:27;24.85;;;9.43;;
35632;SDS011;21754;48.216;-1.628;2023-02-11T09:46:55;17.23;;;9.85;;
35632;SDS011;21754;48.216;-1.628;2023-02-11T09:49:34;17.08;;;9.80;;
35632;SDS011;21754;48.216;-1.628;2023-02-11T09:52:04;18.38;;;9.70;;
35632;SDS011;21754;48.216;-1.628;2023-02-11T09:54:34;25.38;;;10.68;;
35632;SDS011;21754;48.216;-1.628;2023-02-11T09:57:02;34.47;;;11.63;;
35632;SDS011;21754;48.216;-1.628;2023-02-11T09:59:28;10.60;;;9.38;;
35632;SDS011;21754;48.216;-1.628;2023-02-11T10:01:56;14.15;;;9.77;;
35632;SDS011;21754;48.216;-1.628;2023-02-11T10:06:56;17.27;;;10.40;;
35632;SDS011;21754;48.216;-1.628;2023-02-11T10:15:13;27.45;;;12.07;;
35632;SDS011;21754;48.216;-1.628;2023-02-11T10:18:06;30.95;;;11.68;;
35632;SDS011;21754;48.216;-1.628;2023-02-11T10:23:28;21.20;;;13.25;;
35632;SDS011;21754;48.216;-1.628;2023-02-11T10:25:58;32.85;;;13.32;;
35632;SDS011;21754;48.216;-1.628;2023-02-11T10:28:29;32.67;;;15.25;;
35632;SDS011;21754;48.216;-1.628;2023-02-11T10:31:00;24.30;;;14.02;;
35632;SDS011;21754;48.216;-1.628;2023-02-11T10:36:05;24.50;;;14.07;;
35632;SDS011;21754;48.216;-1.628;2023-02-11T10:38:31;25.15;;;15.73;;
35632;SDS011;21754;48.216;-1.628;2023-02-11T10:40:57;28.25;;;16.55;;
35632;SDS011;21754;48.216;-1.628;2023-02-11T10:43:25;19.08;;;14.77;;
35632;SDS011;21754;48.216;-1.628;2023-02-11T10:45:53;25.48;;;16.13;;
35632;SDS011;21754;48.216;-1.628;2023-02-11T10:53:35;26.45;;;16.63;;
35632;SDS011;21754;48.216;-1.628;2023-02-11T10:56:01;23.98;;;13.82;;
35632;SDS011;21754;48.216;-1.628;2023-02-11T10:58:29;24.67;;;17.85;;
35632;SDS011;21754;48.216;-1.628;2023-02-11T11:01:00;24.98;;;16.60;;
35632;SDS011;21754;48.216;-1.628;2023-02-11T11:03:27;24.90;;;16.48;;
35632;SDS011;21754;48.216;-1.628;2023-02-11T11:05:59;24.20;;;16.38;;
35632;SDS011;21754;48.216;-1.628;2023-02-11T11:08:38;27.50;;;15.80;;
35632;SDS011;21754;48.216;-1.628;2023-02-11T11:11:11;22.63;;;14.60;;
35632;SDS011;21754;48.216;-1.628;2023-02-11T11:13:39;24.65;;;15.35;;
35632;SDS011;21754;48.216;-1.628;2023-02-11T11:16:28;24.98;;;14.93;;
35632;SDS011;21754;48.216;-1.628;2023-02-11T11:21:40;26.50;;;15.10;;
35632;SDS011;21754;48.216;-1.628;2023-02-11T11:26:52;23.13;;;14.57;;
35632;SDS011;21754;48.216;-1.628;2023-02-11T11:31:52;25.85;;;17.08;;
35632;SDS011;21754;48.216;-1.628;2023-02-11T11:36:57;32.33;;;16.75;;
35632;SDS011;21754;48.216;-1.628;2023-02-11T11:39:26;25.42;;;16.50;;
35632;SDS011;21754;48.216;-1.628;2023-02-11T11:42:02;26.00;;;16.20;;
35632;SDS011;21754;48.216;-1.628;2023-02-11T11:44:31;24.17;;;15.70;;
35632;SDS011;21754;48.216;-1.628;2023-02-11T11:49:38;25.30;;;15.50;;
35632;SDS011;21754;48.216;-1.628;2023-02-11T11:52:45;25.50;;;15.77;;
35632;SDS011;21754;48.216;-1.628;2023-02-11T11:55:26;26.95;;;16.13;;
35632;SDS011;21754;48.216;-1.628;2023-02-11T11:57:57;24.55;;;17.23;;
35632;SDS011;21754;48.216;-1.628;2023-02-11T12:00:25;30.55;;;17.45;;
35632;SDS011;21754;48.216;-1.628;2023-02-11T12:19:21;22.17;;;14.75;;
35632;SDS011;21754;48.216;-1.628;2023-02-11T12:24:33;28.77;;;16.38;;
35632;SDS011;21754;48.216;-1.628;2023-02-11T12:38:12;15.80;;;10.65;;
35632;SDS011;21754;48.216;-1.628;2023-02-11T12:48:39;15.93;;;9.70;;
35632;SDS011;21754;48.216;-1.628;2023-02-11T12:56:13;29.98;;;14.43;;
35632;SDS011;21754;48.216;-1.628;2023-02-11T12:58:40;23.63;;;13.55;;
35632;SDS011;21754;48.216;-1.628;2023-02-11T13:01:08;24.95;;;13.57;;
35632;SDS011;21754;48.216;-1.628;2023-02-11T13:06:11;20.88;;;11.63;;
35632;SDS011;21754;48.216;-1.628;2023-02-11T13:08:43;23.27;;;12.02;;
35632;SDS011;21754;48.216;-1.628;2023-02-11T13:11:22;17.00;;;10.55;;
35632;SDS011;21754;48.216;-1.628;2023-02-11T13:14:05;19.02;;;11.07;;
35632;SDS011;21754;48.216;-1.628;2023-02-11T13:16:42;10.15;;;9.13;;
35632;SDS011;21754;48.216;-1.628;2023-02-11T13:27:31;6.78;;;6.07;;
35632;SDS011;21754;48.216;-1.628;2023-02-11T13:30:22;7.65;;;6.03;;
35632;SDS011;21754;48.216;-1.628;2023-02-11T13:35:40;7.50;;;5.93;;
35632;SDS011;21754;48.216;-1.628;2023-02-11T13:38:21;7.28;;;6.13;;
35632;SDS011;21754;48.216;-1.628;2023-02-11T13:46:23;9.38;;;5.72;;
35632;SDS011;21754;48.216;-1.628;2023-02-11T13:48:51;8.23;;;6.47;;
35632;SDS011;21754;48.216;-1.628;2023-02-11T13:51:32;9.93;;;5.88;;
35632;SDS011;21754;48.216;-1.628;2023-02-11T13:53:59;7.03;;;5.47;;
35632;SDS011;21754;48.216;-1.628;2023-02-11T13:58:54;6.32;;;5.05;;
35632;SDS011;21754;48.216;-1.628;2023-02-11T14:04:22;6.18;;;5.57;;
35632;SDS011;21754;48.216;-1.628;2023-02-11T14:07:23;7.57;;;4.13;;
35632;SDS011;21754;48.216;-1.628;2023-02-11T14:10:52;7.13;;;4.38;;
35632;SDS011;21754;48.216;-1.628;2023-02-11T14:13:05;5.57;;;4.38;;
35632;SDS011;21754;48.216;-1.628;2023-02-11T14:15:38;4.97;;;4.55;;
35632;SDS011;21754;48.216;-1.628;2023-02-11T14:20:49;7.07;;;4.53;;
35632;SDS011;21754;48.216;-1.628;2023-02-11T14:25:43;4.80;;;4.43;;
35632;SDS011;21754;48.216;-1.628;2023-02-11T14:28:23;11.05;;;5.43;;
35632;SDS011;21754;48.216;-1.628;2023-02-11T14:31:02;6.10;;;4.57;;
35632;SDS011;21754;48.216;-1.628;2023-02-11T14:33:38;6.63;;;5.93;;
35632;SDS011;21754;48.216;-1.628;2023-02-11T14:41:39;6.22;;;5.25;;
35632;SDS011;21754;48.216;-1.628;2023-02-11T14:44:11;6.25;;;5.63;;
35632;SDS011;21754;48.216;-1.628;2023-02-11T14:46:38;8.55;;;5.15;;
35632;SDS011;21754;48.216;-1.628;2023-02-11T14:49:11;6.88;;;5.65;;
35632;SDS011;21754;48.216;-1.628;2023-02-11T14:51:41;6.18;;;5.22;;
35632;SDS011;21754;48.216;-1.628;2023-02-11T14:56:37;5.90;;;5.22;;
35632;SDS011;21754;48.216;-1.628;2023-02-11T14:59:12;6.13;;;5.50;;
35632;SDS011;21754;48.216;-1.628;2023-02-11T15:01:41;14.18;;;6.22;;
35632;SDS011;21754;48.216;-1.628;2023-02-11T15:04:23;7.57;;;5.82;;
35632;SDS011;21754;48.216;-1.628;2023-02-11T15:06:50;6.85;;;5.75;;
35632;SDS011;21754;48.216;-1.628;2023-02-11T15:09:17;11.27;;;5.97;;
35632;SDS011;21754;48.216;-1.628;2023-02-11T15:11:45;5.72;;;5.22;;
35632;SDS011;21754;48.216;-1.628;2023-02-11T15:16:41;10.52;;;6.95;;
35632;SDS011;21754;48.216;-1.628;2023-02-11T15:19:13;8.93;;;6.78;;
35632;SDS011;21754;48.216;-1.628;2023-02-11T15:21:43;17.40;;;9.90;;
35632;SDS011;21754;48.216;-1.628;2023-02-11T15:24:23;15.45;;;9.30;;
35632;SDS011;21754;48.216;-1.628;2023-02-11T15:29:40;8.23;;;6.18;;
35632;SDS011;21754;48.216;-1.628;2023-02-11T15:34:39;6.40;;;4.97;;
35632;SDS011;21754;48.216;-1.628;2023-02-11T15:37:05;7.10;;;5.40;;
35632;SDS011;21754;48.216;-1.628;2023-02-11T15:44:43;11.57;;;6.28;;
35632;SDS011;21754;48.216;-1.628;2023-02-11T15:47:09;13.15;;;7.35;;
35632;SDS011;21754;48.216;-1.628;2023-02-11T15:49:35;10.05;;;6.15;;
35632;SDS011;21754;48.216;-1.628;2023-02-11T15:52:01;6.20;;;4.63;;
35632;SDS011;21754;48.216;-1.628;2023-02-11T15:54:28;7.78;;;6.18;;
35632;SDS011;21754;48.216;-1.628;2023-02-11T15:59:25;16.95;;;8.75;;
35632;SDS011;21754;48.216;-1.628;2023-02-11T16:01:55;9.02;;;6.15;;
35632;SDS011;21754;48.216;-1.628;2023-02-11T16:04:23;6.00;;;5.28;;
35632;SDS011;21754;48.216;-1.628;2023-02-11T16:06:50;7.03;;;4.47;;
35632;SDS011;21754;48.216;-1.628;2023-02-11T16:19:25;13.00;;;8.20;;
35632;SDS011;21754;48.216;-1.628;2023-02-11T16:21:51;9.15;;;5.60;;
35632;SDS011;21754;48.216;-1.628;2023-02-11T16:24:18;15.13;;;7.78;;
35632;SDS011;21754;48.216;-1.628;2023-02-11T16:26:56;17.40;;;11.10;;
35632;SDS011;21754;48.216;-1.628;2023-02-11T16:29:23;16.45;;;10.68;;
35632;SDS011;21754;48.216;-1.628;2023-02-11T16:31:50;17.05;;;9.23;;
35632;SDS011;21754;48.216;-1.628;2023-02-11T16:36:43;18.42;;;8.15;;
35632;SDS011;21754;48.216;-1.628;2023-02-11T16:39:09;7.85;;;6.20;;
35632;SDS011;21754;48.216;-1.628;2023-02-11T16:41:35;8.70;;;5.55;;
35632;SDS011;21754;48.216;-1.628;2023-02-11T16:44:01;11.05;;;7.80;;
35632;SDS011;21754;48.216;-1.628;2023-02-11T16:46:27;25.27;;;6.53;;
35632;SDS011;21754;48.216;-1.628;2023-02-11T16:48:54;8.63;;;5.13;;
35632;SDS011;21754;48.216;-1.628;2023-02-11T16:51:20;8.20;;;4.80;;
35632;SDS011;21754;48.216;-1.628;2023-02-11T16:53:46;5.65;;;4.57;;
35632;SDS011;21754;48.216;-1.628;2023-02-11T16:56:13;7.30;;;4.40;;
35632;SDS011;21754;48.216;-1.628;2023-02-11T16:58:40;5.93;;;2.85;;
35632;SDS011;21754;48.216;-1.628;2023-02-11T17:01:06;4.18;;;3.15;;
35632;SDS011;21754;48.216;-1.628;2023-02-11T17:03:32;6.32;;;3.13;;
35632;SDS011;21754;48.216;-1.628;2023-02-11T17:06:04;2.95;;;2.65;;
35632;SDS011;21754;48.216;-1.628;2023-02-11T17:08:31;3.97;;;3.37;;
35632;SDS011;21754;48.216;-1.628;2023-02-11T17:10:57;2.55;;;2.30;;